createdAt,value
2018-03-31T00:00:57.081Z,1.73
2018-03-31T00:03:24.520Z,1.37
2018-03-31T00:05:51.080Z,1.10
2018-03-31T00:08:17.708Z,1.70
2018-03-31T00:10:45.171Z,1.20
2018-03-31T00:13:11.812Z,1.20
2018-03-31T00:15:38.565Z,1.30
2018-03-31T00:18:05.094Z,1.50
2018-03-31T00:20:31.838Z,1.60
2018-03-31T00:22:58.375Z,1.30
2018-03-31T00:25:25.037Z,1.63
2018-03-31T00:27:53.272Z,1.30
2018-03-31T00:30:19.984Z,1.50
2018-03-31T00:32:48.714Z,1.50
2018-03-31T00:35:15.371Z,1.43
2018-03-31T00:37:42.231Z,1.23
2018-03-31T00:40:09.510Z,1.23
2018-03-31T00:42:36.239Z,1.20
2018-03-31T00:45:02.942Z,1.30
2018-03-31T00:47:30.430Z,1.60
2018-03-31T00:49:57.252Z,1.30
2018-03-31T00:52:23.940Z,1.23
2018-03-31T00:54:50.589Z,1.70
2018-03-31T00:57:18.100Z,1.00
2018-03-31T00:59:44.694Z,1.23
2018-03-31T01:02:11.230Z,1.80
2018-03-31T01:04:37.871Z,1.40
2018-03-31T01:07:05.233Z,2.07
2018-03-31T01:09:32.567Z,1.63
2018-03-31T01:11:59.163Z,1.67
2018-03-31T01:14:27.208Z,1.40
2018-03-31T01:16:53.955Z,1.10
2018-03-31T01:19:20.504Z,1.20
2018-03-31T01:21:47.151Z,1.37
2018-03-31T01:24:14.711Z,1.10
2018-03-31T01:26:41.953Z,1.17
2018-03-31T01:29:08.603Z,1.07
2018-03-31T01:31:35.247Z,1.17
2018-03-31T01:34:02.416Z,1.00
2018-03-31T01:36:28.967Z,0.90
2018-03-31T01:38:56.260Z,1.10
2018-03-31T01:41:23.631Z,1.27
2018-03-31T01:43:50.337Z,1.00
2018-03-31T01:46:16.906Z,1.20
2018-03-31T01:48:44.293Z,1.33
2018-03-31T01:51:10.951Z,1.43
2018-03-31T01:53:37.497Z,1.63
2018-03-31T01:56:04.130Z,1.50
2018-03-31T01:58:31.081Z,1.53
2018-03-31T02:00:57.698Z,1.73
2018-03-31T02:03:24.227Z,1.50
2018-03-31T02:05:51.017Z,1.20
2018-03-31T02:08:17.935Z,1.53
2018-03-31T02:10:44.514Z,1.37
2018-03-31T02:13:11.964Z,1.40
2018-03-31T02:15:39.331Z,1.30
2018-03-31T02:18:05.877Z,1.57
2018-03-31T02:20:32.529Z,1.30
2018-03-31T02:23:00.036Z,1.30
2018-03-31T02:25:26.730Z,1.27
2018-03-31T02:27:53.440Z,1.20
2018-03-31T02:30:20.025Z,2.63
2018-03-31T02:32:47.555Z,2.20
2018-03-31T02:35:14.220Z,3.53
2018-03-31T02:37:40.846Z,2.20
2018-03-31T02:40:08.403Z,1.40
2018-03-31T02:42:35.284Z,1.70
2018-03-31T02:45:02.017Z,1.50
2018-03-31T02:47:28.684Z,1.57
2018-03-31T02:49:56.015Z,1.70
2018-03-31T02:52:22.680Z,1.50
2018-03-31T02:54:49.504Z,1.20
2018-03-31T02:57:16.871Z,1.40
2018-03-31T02:59:43.510Z,4.13
2018-03-31T03:02:10.163Z,1.70
2018-03-31T03:04:37.729Z,1.83
2018-03-31T03:07:04.374Z,1.30
2018-03-31T03:09:31.006Z,1.80
2018-03-31T03:11:58.331Z,1.60
2018-03-31T03:14:24.820Z,3.60
2018-03-31T03:16:51.451Z,1.47
2018-03-31T03:19:18.023Z,1.53
2018-03-31T03:21:45.559Z,1.40
2018-03-31T03:24:12.298Z,1.73
2018-03-31T03:26:38.942Z,1.73
2018-03-31T03:29:06.223Z,1.30
2018-03-31T03:31:33.578Z,1.73
2018-03-31T03:34:00.109Z,1.50
2018-03-31T03:36:27.492Z,2.53
2018-03-31T03:38:54.821Z,1.77
2018-03-31T03:41:21.488Z,2.00
2018-03-31T03:43:49.085Z,1.80
2018-03-31T03:46:15.676Z,1.50
2018-03-31T03:48:42.423Z,1.60
2018-03-31T03:51:09.773Z,1.57
2018-03-31T03:53:37.173Z,1.80
2018-03-31T03:56:04.562Z,1.67
2018-03-31T03:58:31.654Z,1.80
2018-03-31T04:00:58.415Z,1.40
2018-03-31T04:03:25.001Z,1.20
2018-03-31T04:05:51.688Z,1.30
2018-03-31T04:08:18.729Z,1.47
2018-03-31T04:10:45.515Z,1.50
2018-03-31T04:13:12.839Z,1.70
2018-03-31T04:15:40.418Z,2.00
2018-03-31T04:18:07.034Z,1.53
2018-03-31T04:20:33.646Z,1.60
2018-03-31T04:23:00.443Z,1.50
2018-03-31T04:25:27.669Z,1.80
2018-03-31T04:27:54.752Z,1.43
2018-03-31T04:30:22.780Z,1.43
2018-03-31T04:32:49.493Z,1.67
2018-03-31T04:35:16.940Z,1.60
2018-03-31T04:37:45.133Z,1.83
2018-03-31T04:40:12.564Z,1.63
2018-03-31T04:42:39.314Z,1.70
2018-03-31T04:45:06.682Z,1.50
2018-03-31T04:47:33.301Z,1.50
2018-03-31T04:49:59.963Z,1.80
2018-03-31T04:52:26.735Z,1.60
2018-03-31T04:54:54.276Z,1.60
2018-03-31T04:57:21.031Z,1.70
2018-03-31T04:59:47.646Z,1.70
2018-03-31T05:02:14.972Z,1.43
2018-03-31T05:04:41.565Z,1.40
2018-03-31T05:07:08.305Z,1.60
2018-03-31T05:09:35.050Z,1.80
2018-03-31T05:12:02.621Z,1.33
2018-03-31T05:14:29.380Z,1.60
2018-03-31T05:16:56.012Z,1.50
2018-03-31T05:19:23.353Z,1.70
2018-03-31T05:21:50.020Z,1.50
2018-03-31T05:24:16.651Z,1.47
2018-03-31T05:26:43.300Z,1.20
2018-03-31T05:29:10.706Z,1.00
2018-03-31T05:31:37.306Z,1.53
2018-03-31T05:34:03.942Z,1.13
2018-03-31T05:36:31.429Z,1.27
2018-03-31T05:38:58.757Z,0.80
2018-03-31T05:41:25.458Z,1.30
2018-03-31T05:43:52.979Z,1.10
2018-03-31T05:46:20.311Z,1.00
2018-03-31T05:48:47.089Z,1.27
2018-03-31T05:51:14.311Z,1.50
2018-03-31T05:53:41.080Z,1.20
2018-03-31T05:56:07.718Z,1.50
2018-03-31T05:58:34.373Z,1.77
2018-03-31T06:01:01.732Z,1.63
2018-03-31T06:03:28.370Z,1.33
2018-03-31T06:05:55.095Z,7.93
2018-03-31T06:08:22.732Z,6.20
2018-03-31T06:10:49.437Z,5.53
2018-03-31T06:13:16.096Z,5.27
2018-03-31T06:15:44.390Z,3.97
2018-03-31T06:18:12.037Z,3.63
2018-03-31T06:20:38.663Z,3.17
2018-03-31T06:23:06.136Z,3.03
2018-03-31T06:25:32.886Z,2.60
2018-03-31T06:27:59.489Z,2.60
2018-03-31T06:30:26.820Z,2.07
2018-03-31T06:32:53.510Z,2.30
2018-03-31T06:35:20.384Z,1.80
2018-03-31T06:37:46.963Z,1.93
2018-03-31T06:40:15.201Z,2.03
2018-03-31T06:42:43.457Z,1.73
2018-03-31T06:45:10.808Z,1.70
2018-03-31T06:47:38.268Z,1.47
2018-03-31T06:50:06.065Z,1.47
2018-03-31T06:52:32.812Z,1.73
2018-03-31T06:54:59.411Z,2.07
2018-03-31T06:57:27.675Z,1.73
2018-03-31T06:59:54.374Z,1.70
2018-03-31T07:02:21.962Z,1.83
2018-03-31T07:04:49.615Z,1.20
2018-03-31T07:07:16.255Z,1.60
2018-03-31T07:09:42.890Z,1.37
2018-03-31T07:12:09.646Z,1.53
2018-03-31T07:14:37.465Z,1.70
2018-03-31T07:17:04.122Z,2.60
2018-03-31T07:19:30.817Z,1.80
2018-03-31T07:21:59.076Z,1.90
2018-03-31T07:24:25.690Z,2.60
2018-03-31T07:26:52.520Z,1.70
2018-03-31T07:29:19.203Z,1.87
2018-03-31T07:31:46.656Z,2.03
2018-03-31T07:34:13.434Z,2.20
2018-03-31T07:36:40.176Z,1.60
2018-03-31T07:39:07.537Z,1.70
2018-03-31T07:41:34.744Z,1.97
2018-03-31T07:44:01.296Z,1.97
2018-03-31T07:46:27.953Z,1.83
2018-03-31T07:48:55.524Z,2.20
2018-03-31T07:51:22.038Z,2.00
2018-03-31T07:53:48.773Z,2.27
2018-03-31T07:56:15.359Z,1.70
2018-03-31T07:58:42.824Z,1.97
2018-03-31T08:01:09.604Z,1.70
2018-03-31T08:03:37.060Z,1.40
2018-03-31T08:06:04.198Z,1.97
2018-03-31T08:08:30.833Z,1.63
2018-03-31T08:10:57.606Z,2.63
2018-03-31T08:13:25.840Z,2.17
2018-03-31T08:15:52.364Z,1.93
2018-03-31T08:18:18.987Z,1.87
2018-03-31T08:20:45.694Z,2.57
2018-03-31T08:23:12.836Z,2.30
2018-03-31T08:25:39.591Z,1.80
2018-03-31T08:28:06.235Z,1.80
2018-03-31T08:30:34.100Z,1.87
2018-03-31T08:33:00.696Z,1.70
2018-03-31T08:35:27.404Z,1.40
2018-03-31T08:37:55.529Z,1.63
2018-03-31T08:40:23.304Z,1.93
2018-03-31T08:42:49.975Z,1.70
2018-03-31T08:45:17.541Z,1.63
2018-03-31T08:47:45.313Z,1.57
2018-03-31T08:50:11.900Z,1.67
2018-03-31T08:52:39.423Z,1.57
2018-03-31T08:55:06.058Z,2.03
2018-03-31T08:57:32.703Z,2.17
2018-03-31T09:00:00.077Z,1.77
2018-03-31T09:02:27.421Z,2.00
2018-03-31T09:04:54.164Z,2.20
2018-03-31T09:07:20.774Z,1.40
2018-03-31T09:09:48.273Z,1.77
2018-03-31T09:12:14.904Z,1.70
2018-03-31T09:14:41.575Z,2.10
2018-03-31T09:17:08.314Z,1.70
2018-03-31T09:19:35.999Z,2.07
2018-03-31T09:22:03.317Z,1.67
2018-03-31T09:24:30.092Z,2.30
2018-03-31T09:26:57.850Z,1.63
2018-03-31T09:29:24.511Z,1.70
2018-03-31T09:31:52.615Z,1.53
2018-03-31T09:34:20.129Z,1.70
2018-03-31T09:36:46.786Z,1.70
2018-03-31T09:39:14.352Z,1.40
2018-03-31T09:41:41.806Z,2.10
2018-03-31T09:44:08.455Z,1.70
2018-03-31T09:46:35.153Z,2.00
2018-03-31T09:49:01.741Z,1.70
2018-03-31T09:51:29.387Z,2.07
2018-03-31T09:53:56.164Z,2.23
2018-03-31T09:56:23.476Z,2.53
2018-03-31T09:58:51.118Z,1.87
2018-03-31T10:01:17.612Z,2.20
2018-03-31T10:03:44.219Z,2.27
2018-03-31T10:06:10.747Z,2.10
2018-03-31T10:08:38.076Z,2.80
2018-03-31T10:11:05.506Z,2.13
2018-03-31T10:13:32.030Z,1.80
2018-03-31T10:15:59.498Z,2.03
2018-03-31T10:18:26.116Z,1.90
2018-03-31T10:20:52.690Z,2.30
2018-03-31T10:23:19.353Z,3.20
2018-03-31T10:25:46.989Z,2.60
2018-03-31T10:28:13.652Z,2.03
2018-03-31T10:30:41.604Z,1.83
2018-03-31T10:33:08.239Z,2.30
2018-03-31T10:35:35.043Z,2.00
2018-03-31T10:38:02.964Z,1.70
2018-03-31T10:40:29.640Z,1.80
2018-03-31T10:42:57.048Z,1.77
2018-03-31T10:45:24.346Z,1.83
2018-03-31T10:47:51.021Z,1.90
2018-03-31T10:50:18.474Z,1.70
2018-03-31T10:52:46.125Z,1.87
2018-03-31T10:55:12.948Z,2.37
2018-03-31T10:57:39.509Z,1.80
2018-03-31T11:00:06.273Z,1.60
2018-03-31T11:02:33.594Z,2.70
2018-03-31T11:05:00.404Z,2.43
2018-03-31T11:07:27.007Z,1.50
2018-03-31T11:09:53.652Z,1.60
2018-03-31T11:12:21.120Z,1.50
2018-03-31T11:14:48.465Z,1.73
2018-03-31T11:17:15.071Z,1.73
2018-03-31T11:19:42.588Z,1.97
2018-03-31T11:22:09.338Z,1.63
2018-03-31T11:24:36.705Z,1.90
2018-03-31T11:27:05.092Z,2.00
2018-03-31T11:29:32.425Z,1.60
2018-03-31T11:31:59.022Z,3.03
2018-03-31T11:34:26.080Z,1.73
2018-03-31T11:36:52.868Z,1.50
2018-03-31T11:39:19.611Z,1.40
2018-03-31T11:41:47.091Z,1.70
2018-03-31T11:44:13.821Z,1.20
2018-03-31T11:46:40.580Z,1.63
2018-03-31T11:49:08.009Z,1.30
2018-03-31T11:51:34.954Z,1.57
2018-03-31T11:54:01.725Z,1.70
2018-03-31T11:56:29.166Z,1.60
2018-03-31T11:58:56.062Z,1.70
2018-03-31T12:01:22.997Z,1.87
2018-03-31T12:03:50.547Z,1.70
2018-03-31T12:06:17.091Z,2.00
2018-03-31T12:08:43.737Z,1.13
2018-03-31T12:11:11.055Z,1.47
2018-03-31T12:13:37.739Z,1.27
2018-03-31T12:16:04.381Z,2.73
2018-03-31T12:18:31.952Z,1.93
2018-03-31T12:20:58.630Z,1.63
2018-03-31T12:23:25.228Z,1.20
2018-03-31T12:25:52.813Z,1.07
2018-03-31T12:28:19.318Z,1.50
2018-03-31T12:30:45.980Z,1.30
2018-03-31T12:33:13.366Z,1.80
2018-03-31T12:35:40.749Z,1.70
2018-03-31T12:38:07.345Z,1.40
2018-03-31T12:40:34.559Z,1.37
2018-03-31T12:43:01.378Z,1.33
2018-03-31T12:45:28.812Z,1.90
2018-03-31T12:47:56.258Z,1.63
2018-03-31T12:50:23.017Z,1.30
2018-03-31T12:52:49.768Z,1.70
2018-03-31T12:55:17.307Z,1.30
2018-03-31T12:57:43.936Z,1.47
2018-03-31T13:00:10.620Z,2.03
2018-03-31T13:02:38.692Z,1.60
2018-03-31T13:05:06.757Z,1.37
2018-03-31T13:07:33.402Z,1.60
2018-03-31T13:10:01.077Z,1.57
2018-03-31T13:12:28.469Z,1.80
2018-03-31T13:14:55.297Z,1.63
2018-03-31T13:17:22.629Z,2.70
2018-03-31T13:19:49.267Z,1.77
2018-03-31T13:22:15.878Z,3.33
2018-03-31T13:24:42.579Z,2.50
2018-03-31T13:27:09.837Z,2.23
2018-03-31T13:29:36.466Z,2.10
2018-03-31T13:32:03.031Z,2.07
2018-03-31T13:34:30.433Z,1.60
2018-03-31T13:36:57.013Z,1.83
2018-03-31T13:39:23.533Z,2.77
2018-03-31T13:41:50.098Z,1.80
2018-03-31T13:44:16.806Z,1.50
2018-03-31T13:46:43.873Z,1.43
2018-03-31T13:49:10.612Z,1.57
2018-03-31T13:51:37.392Z,1.80
2018-03-31T13:54:04.923Z,2.03
2018-03-31T13:56:32.619Z,1.90
2018-03-31T13:58:59.240Z,2.33
2018-03-31T14:01:26.827Z,2.90
2018-03-31T14:03:53.451Z,2.40
2018-03-31T14:06:20.137Z,2.87
2018-03-31T14:08:47.573Z,3.57
2018-03-31T14:11:14.940Z,2.70
2018-03-31T14:13:41.696Z,2.40
2018-03-31T14:16:08.317Z,2.47
2018-03-31T14:18:35.317Z,3.20
2018-03-31T14:21:02.107Z,2.27
2018-03-31T14:23:28.884Z,2.33
2018-03-31T14:25:56.330Z,5.27
2018-03-31T14:28:23.185Z,2.80
2018-03-31T14:30:49.785Z,3.73
2018-03-31T14:33:16.672Z,2.00
2018-03-31T14:35:44.944Z,1.80
2018-03-31T14:38:11.600Z,2.83
2018-03-31T14:40:39.501Z,2.40
2018-03-31T14:43:06.948Z,2.60
2018-03-31T14:45:34.282Z,2.50
2018-03-31T14:48:01.375Z,2.83
2018-03-31T14:50:29.207Z,3.57
2018-03-31T14:52:56.545Z,2.23
2018-03-31T14:55:23.258Z,1.70
2018-03-31T14:57:49.966Z,3.30
2018-03-31T15:00:17.423Z,4.03
2018-03-31T15:02:44.005Z,2.07
2018-03-31T15:05:10.609Z,1.90
2018-03-31T15:07:38.896Z,2.97
2018-03-31T15:10:05.542Z,1.93
2018-03-31T15:12:32.170Z,1.50
2018-03-31T15:14:58.681Z,2.20
2018-03-31T15:17:26.212Z,1.40
2018-03-31T15:19:52.824Z,1.97
2018-03-31T15:22:20.453Z,2.03
2018-03-31T15:24:47.132Z,1.67
2018-03-31T15:27:14.596Z,2.80
2018-03-31T15:29:41.375Z,3.27
2018-03-31T15:32:08.802Z,1.93
2018-03-31T15:34:36.315Z,2.10
2018-03-31T15:37:02.909Z,1.20
2018-03-31T15:39:29.544Z,1.90
2018-03-31T15:41:56.333Z,2.50
2018-03-31T15:44:24.158Z,1.60
2018-03-31T15:46:50.942Z,2.23
2018-03-31T15:49:18.240Z,1.47
2018-03-31T15:51:45.975Z,1.80
2018-03-31T15:54:12.477Z,1.10
2018-03-31T15:56:39.341Z,1.43
2018-03-31T15:59:06.632Z,2.27
2018-03-31T16:01:33.449Z,1.40
2018-03-31T16:04:00.074Z,1.57
2018-03-31T16:06:27.749Z,1.30
2018-03-31T16:08:55.140Z,2.00
2018-03-31T16:11:21.856Z,1.67
2018-03-31T16:13:48.385Z,1.43
2018-03-31T16:16:15.237Z,2.53
2018-03-31T16:18:42.592Z,1.87
2018-03-31T16:21:09.367Z,2.40
2018-03-31T16:23:36.820Z,1.50
2018-03-31T16:26:04.500Z,1.40
2018-03-31T16:28:31.820Z,2.57
2018-03-31T16:30:58.480Z,2.83
2018-03-31T16:33:25.528Z,1.80
2018-03-31T16:35:52.219Z,1.90
2018-03-31T16:38:18.939Z,2.70
2018-03-31T16:40:46.330Z,2.23
2018-03-31T16:43:12.904Z,2.40
2018-03-31T16:45:39.504Z,2.57
2018-03-31T16:48:06.109Z,2.70
2018-03-31T16:50:34.168Z,2.20
2018-03-31T16:53:00.686Z,2.40
2018-03-31T16:55:27.392Z,2.20
2018-03-31T16:57:54.829Z,2.30
2018-03-31T17:00:22.189Z,2.40
2018-03-31T17:02:48.829Z,2.70
2018-03-31T17:05:16.104Z,2.43
2018-03-31T17:07:42.825Z,2.40
2018-03-31T17:10:09.488Z,1.90
2018-03-31T17:12:37.032Z,2.40
2018-03-31T17:15:03.584Z,2.30
2018-03-31T17:17:30.335Z,1.90
2018-03-31T17:19:57.377Z,1.80
2018-03-31T17:22:24.090Z,2.80
2018-03-31T17:24:50.784Z,1.63
2018-03-31T17:27:17.255Z,2.60
2018-03-31T17:29:44.768Z,2.50
2018-03-31T17:32:11.284Z,1.80
2018-03-31T17:34:38.065Z,1.70
2018-03-31T17:37:05.569Z,1.70
2018-03-31T17:39:32.117Z,1.50
2018-03-31T17:41:58.808Z,1.63
2018-03-31T17:44:25.445Z,1.30
2018-03-31T17:46:52.879Z,1.43
2018-03-31T17:49:19.661Z,1.97
2018-03-31T17:51:46.402Z,1.47
2018-03-31T17:54:13.867Z,1.53
2018-03-31T17:56:40.540Z,1.80
2018-03-31T17:59:07.837Z,1.70
2018-03-31T18:01:35.308Z,1.83
2018-03-31T18:04:01.988Z,1.50
2018-03-31T18:06:28.771Z,1.90
2018-03-31T18:08:55.473Z,1.40
2018-03-31T18:11:22.308Z,1.77
2018-03-31T18:13:48.939Z,1.50
2018-03-31T18:16:15.599Z,1.60
2018-03-31T18:18:42.192Z,1.53
2018-03-31T18:21:09.504Z,1.17
2018-03-31T18:23:36.250Z,1.27
2018-03-31T18:26:02.880Z,4.20
2018-03-31T18:28:29.502Z,3.43
2018-03-31T18:30:56.980Z,1.87
2018-03-31T18:33:23.664Z,1.70
2018-03-31T18:35:50.984Z,1.90
2018-03-31T18:38:17.646Z,2.00
2018-03-31T18:40:45.007Z,2.67
2018-03-31T18:43:11.677Z,1.80
2018-03-31T18:45:39.025Z,2.07
2018-03-31T18:48:06.581Z,2.00
2018-03-31T18:50:33.232Z,1.80
2018-03-31T18:53:00.573Z,1.77
2018-03-31T18:55:27.236Z,2.27
2018-03-31T18:57:54.159Z,2.33
2018-03-31T19:00:20.716Z,2.50
2018-03-31T19:02:48.068Z,1.77
2018-03-31T19:05:15.328Z,1.30
2018-03-31T19:07:42.189Z,1.53
2018-03-31T19:10:08.885Z,2.20
2018-03-31T19:12:36.527Z,2.03
2018-03-31T19:15:03.028Z,1.60
2018-03-31T19:17:29.667Z,1.87
2018-03-31T19:19:56.213Z,1.77
2018-03-31T19:22:23.678Z,1.50
2018-03-31T19:24:56.464Z,1.60
2018-03-31T19:27:22.990Z,1.60
2018-03-31T19:29:50.618Z,1.70
2018-03-31T19:32:17.287Z,1.90
2018-03-31T19:34:43.955Z,1.30
2018-03-31T19:37:10.605Z,1.50
2018-03-31T19:39:43.860Z,1.70
2018-03-31T19:42:10.543Z,1.43
2018-03-31T19:44:37.110Z,1.90
2018-03-31T19:47:04.629Z,1.70
2018-03-31T19:49:31.381Z,1.50
2018-03-31T19:51:58.036Z,1.63
2018-03-31T19:54:26.212Z,1.80
2018-03-31T19:56:52.860Z,1.50
2018-03-31T19:59:19.501Z,1.50
2018-03-31T20:01:46.095Z,1.47
2018-03-31T20:04:13.612Z,1.40
2018-03-31T20:06:40.248Z,1.50
2018-03-31T20:09:06.889Z,1.30
2018-03-31T20:11:34.329Z,1.60
2018-03-31T20:14:01.211Z,1.30
2018-03-31T20:16:27.802Z,1.67
2018-03-31T20:18:54.381Z,1.63
2018-03-31T20:21:21.797Z,1.53
2018-03-31T20:23:48.486Z,1.70
2018-03-31T20:26:15.183Z,1.40
2018-03-31T20:28:42.639Z,1.30
2018-03-31T20:31:09.237Z,2.50
2018-03-31T20:33:35.880Z,2.53
2018-03-31T20:36:02.487Z,2.73
2018-03-31T20:38:29.985Z,2.67
2018-03-31T20:40:56.589Z,2.90
2018-03-31T20:43:23.426Z,3.10
2018-03-31T20:45:51.663Z,3.50
2018-03-31T20:48:18.292Z,3.93
2018-03-31T20:50:44.941Z,6.80
2018-03-31T20:53:12.533Z,5.70
2018-03-31T20:55:40.056Z,4.50
2018-03-31T20:58:06.722Z,3.90
2018-03-31T21:00:34.696Z,3.60
2018-03-31T21:03:01.317Z,4.40
2018-03-31T21:05:27.966Z,3.37
2018-03-31T21:07:55.280Z,3.40
2018-03-31T21:10:21.872Z,3.67
2018-03-31T21:12:48.637Z,2.90
2018-03-31T21:15:16.153Z,3.07
2018-03-31T21:17:43.548Z,3.30
2018-03-31T21:20:10.285Z,3.10
2018-03-31T21:22:36.895Z,3.37
2018-03-31T21:25:03.588Z,2.70
2018-03-31T21:27:30.144Z,4.40
2018-03-31T21:29:57.596Z,3.13
2018-03-31T21:32:25.045Z,2.20
2018-03-31T21:34:51.774Z,2.50
2018-03-31T21:37:19.224Z,2.30
2018-03-31T21:39:45.923Z,2.37
2018-03-31T21:42:13.699Z,2.30
2018-03-31T21:44:41.124Z,2.70
2018-03-31T21:47:07.681Z,2.20
2018-03-31T21:49:35.137Z,2.87
2018-03-31T21:52:02.512Z,1.77
2018-03-31T21:54:29.823Z,2.17
2018-03-31T21:56:56.600Z,2.17
2018-03-31T21:59:23.332Z,2.10
2018-03-31T22:01:50.164Z,2.03
2018-03-31T22:04:16.837Z,2.33
2018-03-31T22:06:43.507Z,1.97
2018-03-31T22:09:11.649Z,1.70
2018-03-31T22:11:38.400Z,1.70
2018-03-31T22:17:10.089Z,2.07
2018-03-31T22:19:38.543Z,2.00
2018-03-31T22:22:05.249Z,1.93
2018-03-31T22:24:31.898Z,2.37
2018-03-31T22:26:59.237Z,2.23
2018-03-31T22:29:25.852Z,2.20
2018-03-31T22:31:53.179Z,1.70
2018-03-31T22:34:20.592Z,2.87
2018-03-31T22:36:47.149Z,1.97
2018-03-31T22:39:13.733Z,2.07
2018-03-31T22:41:40.359Z,2.00
2018-03-31T22:44:07.763Z,1.90
2018-03-31T22:46:35.109Z,2.33
2018-03-31T22:49:01.846Z,1.80
2018-03-31T22:51:29.311Z,1.70
2018-03-31T22:53:56.056Z,1.80
2018-03-31T22:56:22.692Z,2.47
2018-03-31T22:58:49.300Z,2.13
2018-03-31T23:01:16.369Z,1.77
2018-03-31T23:03:43.044Z,2.47
2018-03-31T23:06:09.675Z,2.00
2018-03-31T23:08:36.282Z,1.70
2018-03-31T23:11:03.780Z,1.90
2018-03-31T23:13:30.453Z,2.70
2018-03-31T23:15:57.168Z,2.07
2018-03-31T23:18:24.665Z,2.67
2018-03-31T23:20:52.206Z,2.17
2018-03-31T23:23:20.425Z,2.00
2018-03-31T23:25:47.231Z,1.90
2018-03-31T23:28:14.181Z,1.83
2018-03-31T23:30:40.810Z,1.60
2018-03-31T23:33:07.776Z,1.63
2018-03-31T23:35:34.511Z,1.97
2018-03-31T23:38:01.167Z,1.80
2018-03-31T23:40:28.643Z,2.30
2018-03-31T23:42:56.090Z,2.03
2018-03-31T23:45:22.698Z,1.87
2018-03-31T23:47:50.209Z,1.70
2018-03-31T23:50:17.564Z,1.80
2018-03-31T23:52:45.674Z,1.80
2018-03-31T23:55:12.276Z,2.10
2018-03-31T23:57:38.906Z,1.60
